Terminal Aerodrome Forecast
Issued by NWS Shreveport, LA

Home | Current Version | Previous Version | Text Only | Print | Product List | Glossary On
Versions: 1 2 3 4 5 6 7 8 9 10 11 12
549
FTUS44 KSHV 251139
TAFSHV
TAF
KSHV 251139Z 2512/2612 VRB03KT P6SM SCT180 BKN250
     FM251600 24004KT P6SM BKN150
     FM252000 34007KT P6SM SCT150 SCT250
     FM260000 03005KT P6SM SCT250=

USA.gov is the U.S. government's official web portal to all federal, state and local government web resources and services.